sensor_id;sensor_type;location;lat;lon;timestamp;P1;durP1;ratioP1;P2;durP2;ratioP2
85259;SDS011;75671;41.678;44.824;2024-01-16T00:00:34;15.57;;;4.97;;
85259;SDS011;75671;41.678;44.824;2024-01-16T00:03:21;10.45;;;4.45;;
85259;SDS011;75671;41.678;44.824;2024-01-16T00:05:49;9.02;;;3.90;;
85259;SDS011;75671;41.678;44.824;2024-01-16T00:08:16;14.10;;;4.00;;
85259;SDS011;75671;41.678;44.824;2024-01-16T00:10:43;9.88;;;3.83;;
85259;SDS011;75671;41.678;44.824;2024-01-16T00:13:10;11.93;;;4.28;;
85259;SDS011;75671;41.678;44.824;2024-01-16T00:15:37;12.68;;;4.15;;
85259;SDS011;75671;41.678;44.824;2024-01-16T00:18:04;15.90;;;4.80;;
85259;SDS011;75671;41.678;44.824;2024-01-16T00:20:32;18.10;;;5.80;;
85259;SDS011;75671;41.678;44.824;2024-01-16T00:22:59;17.05;;;6.15;;
85259;SDS011;75671;41.678;44.824;2024-01-16T00:25:26;23.40;;;6.32;;
85259;SDS011;75671;41.678;44.824;2024-01-16T00:27:54;21.27;;;6.30;;
85259;SDS011;75671;41.678;44.824;2024-01-16T00:30:23;16.27;;;5.32;;
85259;SDS011;75671;41.678;44.824;2024-01-16T00:32:49;22.25;;;6.47;;
85259;SDS011;75671;41.678;44.824;2024-01-16T00:35:17;12.93;;;4.35;;
85259;SDS011;75671;41.678;44.824;2024-01-16T00:37:44;16.20;;;5.60;;
85259;SDS011;75671;41.678;44.824;2024-01-16T00:40:11;23.25;;;6.85;;
85259;SDS011;75671;41.678;44.824;2024-01-16T00:42:38;25.42;;;7.00;;
85259;SDS011;75671;41.678;44.824;2024-01-16T00:45:06;16.45;;;5.38;;
85259;SDS011;75671;41.678;44.824;2024-01-16T00:47:33;13.15;;;4.72;;
85259;SDS011;75671;41.678;44.824;2024-01-16T00:50:00;13.25;;;4.72;;
85259;SDS011;75671;41.678;44.824;2024-01-16T00:52:29;13.27;;;4.25;;
85259;SDS011;75671;41.678;44.824;2024-01-16T00:54:56;9.15;;;3.40;;
85259;SDS011;75671;41.678;44.824;2024-01-16T00:57:23;8.10;;;3.83;;
85259;SDS011;75671;41.678;44.824;2024-01-16T00:59:51;8.30;;;3.95;;
85259;SDS011;75671;41.678;44.824;2024-01-16T01:02:18;9.00;;;3.00;;
85259;SDS011;75671;41.678;44.824;2024-01-16T01:04:45;10.27;;;3.95;;
85259;SDS011;75671;41.678;44.824;2024-01-16T01:07:13;14.38;;;3.60;;
85259;SDS011;75671;41.678;44.824;2024-01-16T01:09:41;8.38;;;3.75;;
85259;SDS011;75671;41.678;44.824;2024-01-16T01:12:08;9.27;;;3.47;;
85259;SDS011;75671;41.678;44.824;2024-01-16T01:14:36;10.85;;;4.03;;
85259;SDS011;75671;41.678;44.824;2024-01-16T01:17:03;6.00;;;3.03;;
85259;SDS011;75671;41.678;44.824;2024-01-16T01:19:31;11.68;;;4.72;;
85259;SDS011;75671;41.678;44.824;2024-01-16T01:21:57;9.45;;;4.32;;
85259;SDS011;75671;41.678;44.824;2024-01-16T01:24:25;10.00;;;4.18;;
85259;SDS011;75671;41.678;44.824;2024-01-16T01:26:52;12.35;;;4.38;;
85259;SDS011;75671;41.678;44.824;2024-01-16T01:29:19;13.55;;;4.57;;
85259;SDS011;75671;41.678;44.824;2024-01-16T01:31:46;12.80;;;4.28;;
85259;SDS011;75671;41.678;44.824;2024-01-16T01:34:14;13.77;;;5.47;;
85259;SDS011;75671;41.678;44.824;2024-01-16T01:36:42;8.35;;;3.90;;
85259;SDS011;75671;41.678;44.824;2024-01-16T01:39:10;11.43;;;4.47;;
85259;SDS011;75671;41.678;44.824;2024-01-16T01:41:37;10.20;;;4.10;;
85259;SDS011;75671;41.678;44.824;2024-01-16T01:44:05;9.25;;;4.28;;
85259;SDS011;75671;41.678;44.824;2024-01-16T01:46:32;8.38;;;3.72;;
85259;SDS011;75671;41.678;44.824;2024-01-16T01:49:01;11.80;;;4.35;;
85259;SDS011;75671;41.678;44.824;2024-01-16T01:51:28;11.57;;;3.85;;
85259;SDS011;75671;41.678;44.824;2024-01-16T01:53:56;7.72;;;3.17;;
85259;SDS011;75671;41.678;44.824;2024-01-16T01:56:24;9.32;;;3.78;;
85259;SDS011;75671;41.678;44.824;2024-01-16T01:58:53;11.07;;;3.38;;
85259;SDS011;75671;41.678;44.824;2024-01-16T02:01:20;7.93;;;3.20;;
85259;SDS011;75671;41.678;44.824;2024-01-16T02:03:49;7.18;;;3.17;;
85259;SDS011;75671;41.678;44.824;2024-01-16T02:06:16;9.65;;;3.10;;
85259;SDS011;75671;41.678;44.824;2024-01-16T02:08:44;9.77;;;4.18;;
85259;SDS011;75671;41.678;44.824;2024-01-16T02:11:11;14.23;;;5.75;;
85259;SDS011;75671;41.678;44.824;2024-01-16T02:13:39;22.77;;;5.43;;
85259;SDS011;75671;41.678;44.824;2024-01-16T02:16:06;16.67;;;6.47;;
85259;SDS011;75671;41.678;44.824;2024-01-16T02:18:44;16.65;;;5.63;;
85259;SDS011;75671;41.678;44.824;2024-01-16T02:21:12;10.65;;;4.90;;
85259;SDS011;75671;41.678;44.824;2024-01-16T02:23:43;9.70;;;3.53;;
85259;SDS011;75671;41.678;44.824;2024-01-16T02:26:10;9.75;;;3.67;;
85259;SDS011;75671;41.678;44.824;2024-01-16T02:28:37;9.80;;;4.30;;
85259;SDS011;75671;41.678;44.824;2024-01-16T02:31:04;10.50;;;4.82;;
85259;SDS011;75671;41.678;44.824;2024-01-16T02:33:32;7.35;;;3.53;;
85259;SDS011;75671;41.678;44.824;2024-01-16T02:35:59;7.65;;;3.35;;
85259;SDS011;75671;41.678;44.824;2024-01-16T02:38:26;8.25;;;3.72;;
85259;SDS011;75671;41.678;44.824;2024-01-16T02:40:53;8.25;;;3.50;;
85259;SDS011;75671;41.678;44.824;2024-01-16T02:43:20;9.45;;;3.42;;
85259;SDS011;75671;41.678;44.824;2024-01-16T02:45:47;9.70;;;3.85;;
85259;SDS011;75671;41.678;44.824;2024-01-16T02:48:14;9.82;;;3.65;;
85259;SDS011;75671;41.678;44.824;2024-01-16T02:50:41;12.43;;;4.13;;
85259;SDS011;75671;41.678;44.824;2024-01-16T02:53:09;7.50;;;3.25;;
85259;SDS011;75671;41.678;44.824;2024-01-16T02:55:36;11.73;;;3.60;;
85259;SDS011;75671;41.678;44.824;2024-01-16T02:58:04;9.18;;;3.70;;
85259;SDS011;75671;41.678;44.824;2024-01-16T03:00:30;9.10;;;3.20;;
85259;SDS011;75671;41.678;44.824;2024-01-16T03:02:58;7.50;;;3.00;;
85259;SDS011;75671;41.678;44.824;2024-01-16T03:05:25;9.65;;;3.47;;
85259;SDS011;75671;41.678;44.824;2024-01-16T03:07:52;6.75;;;3.08;;
85259;SDS011;75671;41.678;44.824;2024-01-16T03:10:19;8.45;;;3.40;;
85259;SDS011;75671;41.678;44.824;2024-01-16T03:12:46;11.68;;;3.83;;
85259;SDS011;75671;41.678;44.824;2024-01-16T03:15:13;13.20;;;4.75;;
85259;SDS011;75671;41.678;44.824;2024-01-16T03:17:41;12.52;;;4.22;;
85259;SDS011;75671;41.678;44.824;2024-01-16T03:20:08;9.95;;;4.03;;
85259;SDS011;75671;41.678;44.824;2024-01-16T03:22:36;13.02;;;3.83;;
85259;SDS011;75671;41.678;44.824;2024-01-16T03:25:03;7.40;;;2.95;;
85259;SDS011;75671;41.678;44.824;2024-01-16T03:27:30;8.20;;;3.08;;
85259;SDS011;75671;41.678;44.824;2024-01-16T03:29:57;10.65;;;3.70;;
85259;SDS011;75671;41.678;44.824;2024-01-16T03:32:24;11.85;;;2.88;;
85259;SDS011;75671;41.678;44.824;2024-01-16T03:34:52;10.65;;;4.30;;
85259;SDS011;75671;41.678;44.824;2024-01-16T03:37:19;10.10;;;4.32;;
85259;SDS011;75671;41.678;44.824;2024-01-16T03:39:46;6.68;;;3.05;;
85259;SDS011;75671;41.678;44.824;2024-01-16T03:42:13;10.45;;;3.95;;
85259;SDS011;75671;41.678;44.824;2024-01-16T03:44:41;17.35;;;3.75;;
85259;SDS011;75671;41.678;44.824;2024-01-16T03:47:08;10.85;;;3.60;;
85259;SDS011;75671;41.678;44.824;2024-01-16T03:49:35;12.30;;;3.35;;
85259;SDS011;75671;41.678;44.824;2024-01-16T03:52:02;11.43;;;3.30;;
85259;SDS011;75671;41.678;44.824;2024-01-16T03:54:29;11.10;;;3.95;;
85259;SDS011;75671;41.678;44.824;2024-01-16T03:56:56;10.55;;;3.65;;
85259;SDS011;75671;41.678;44.824;2024-01-16T03:59:24;10.23;;;3.50;;
85259;SDS011;75671;41.678;44.824;2024-01-16T04:01:51;11.07;;;4.15;;
85259;SDS011;75671;41.678;44.824;2024-01-16T04:04:18;6.63;;;3.28;;
85259;SDS011;75671;41.678;44.824;2024-01-16T04:06:46;7.20;;;3.08;;
85259;SDS011;75671;41.678;44.824;2024-01-16T04:09:13;6.20;;;2.78;;
85259;SDS011;75671;41.678;44.824;2024-01-16T04:11:41;5.65;;;1.67;;
85259;SDS011;75671;41.678;44.824;2024-01-16T04:14:08;8.10;;;3.08;;
85259;SDS011;75671;41.678;44.824;2024-01-16T04:16:35;8.93;;;3.50;;
85259;SDS011;75671;41.678;44.824;2024-01-16T04:19:02;10.40;;;3.80;;
85259;SDS011;75671;41.678;44.824;2024-01-16T04:21:29;10.43;;;3.08;;
85259;SDS011;75671;41.678;44.824;2024-01-16T04:23:57;6.57;;;2.95;;
85259;SDS011;75671;41.678;44.824;2024-01-16T04:26:24;9.13;;;3.35;;
85259;SDS011;75671;41.678;44.824;2024-01-16T04:28:51;9.43;;;3.10;;
85259;SDS011;75671;41.678;44.824;2024-01-16T04:31:19;10.38;;;3.63;;
85259;SDS011;75671;41.678;44.824;2024-01-16T04:33:48;6.45;;;2.72;;
85259;SDS011;75671;41.678;44.824;2024-01-16T04:36:16;8.88;;;4.35;;
85259;SDS011;75671;41.678;44.824;2024-01-16T04:38:43;9.00;;;3.30;;
85259;SDS011;75671;41.678;44.824;2024-01-16T04:41:10;11.02;;;3.60;;
85259;SDS011;75671;41.678;44.824;2024-01-16T04:43:37;12.57;;;4.10;;
85259;SDS011;75671;41.678;44.824;2024-01-16T04:46:04;9.68;;;3.15;;
85259;SDS011;75671;41.678;44.824;2024-01-16T04:48:32;11.98;;;3.78;;
85259;SDS011;75671;41.678;44.824;2024-01-16T04:50:59;8.10;;;3.42;;
85259;SDS011;75671;41.678;44.824;2024-01-16T04:53:26;8.40;;;2.75;;
85259;SDS011;75671;41.678;44.824;2024-01-16T04:55:53;8.85;;;3.13;;
85259;SDS011;75671;41.678;44.824;2024-01-16T04:58:20;9.63;;;3.40;;
85259;SDS011;75671;41.678;44.824;2024-01-16T05:00:47;9.27;;;3.97;;
85259;SDS011;75671;41.678;44.824;2024-01-16T05:03:15;8.38;;;2.90;;
85259;SDS011;75671;41.678;44.824;2024-01-16T05:05:42;13.52;;;3.72;;
85259;SDS011;75671;41.678;44.824;2024-01-16T05:08:09;15.73;;;3.80;;
85259;SDS011;75671;41.678;44.824;2024-01-16T05:10:36;15.68;;;3.88;;
85259;SDS011;75671;41.678;44.824;2024-01-16T05:13:04;10.75;;;3.63;;
85259;SDS011;75671;41.678;44.824;2024-01-16T05:15:31;27.80;;;5.63;;
85259;SDS011;75671;41.678;44.824;2024-01-16T05:17:58;14.25;;;4.63;;
85259;SDS011;75671;41.678;44.824;2024-01-16T05:20:25;15.73;;;4.22;;
85259;SDS011;75671;41.678;44.824;2024-01-16T05:22:52;25.38;;;6.15;;
85259;SDS011;75671;41.678;44.824;2024-01-16T05:25:19;104.40;;;17.73;;
85259;SDS011;75671;41.678;44.824;2024-01-16T05:27:47;17.90;;;5.53;;
85259;SDS011;75671;41.678;44.824;2024-01-16T05:30:15;20.67;;;6.15;;
85259;SDS011;75671;41.678;44.824;2024-01-16T05:32:42;17.80;;;5.50;;
85259;SDS011;75671;41.678;44.824;2024-01-16T05:35:09;15.68;;;5.13;;
85259;SDS011;75671;41.678;44.824;2024-01-16T05:37:37;16.10;;;6.03;;
85259;SDS011;75671;41.678;44.824;2024-01-16T05:40:04;22.98;;;5.72;;
85259;SDS011;75671;41.678;44.824;2024-01-16T05:42:34;16.70;;;6.63;;
85259;SDS011;75671;41.678;44.824;2024-01-16T05:45:01;24.83;;;7.35;;
85259;SDS011;75671;41.678;44.824;2024-01-16T05:47:29;20.80;;;7.53;;
85259;SDS011;75671;41.678;44.824;2024-01-16T05:49:56;18.05;;;7.65;;
85259;SDS011;75671;41.678;44.824;2024-01-16T05:52:24;18.42;;;7.22;;
85259;SDS011;75671;41.678;44.824;2024-01-16T05:54:51;26.33;;;7.28;;
85259;SDS011;75671;41.678;44.824;2024-01-16T05:57:19;12.57;;;6.00;;
85259;SDS011;75671;41.678;44.824;2024-01-16T05:59:45;15.73;;;6.35;;
85259;SDS011;75671;41.678;44.824;2024-01-16T06:02:13;16.67;;;7.15;;
85259;SDS011;75671;41.678;44.824;2024-01-16T06:04:40;21.90;;;7.15;;
85259;SDS011;75671;41.678;44.824;2024-01-16T06:07:08;15.82;;;6.82;;
85259;SDS011;75671;41.678;44.824;2024-01-16T06:09:38;13.88;;;7.15;;
85259;SDS011;75671;41.678;44.824;2024-01-16T06:12:08;15.05;;;6.40;;
85259;SDS011;75671;41.678;44.824;2024-01-16T06:14:35;18.85;;;10.05;;
85259;SDS011;75671;41.678;44.824;2024-01-16T06:17:03;18.55;;;7.22;;
85259;SDS011;75671;41.678;44.824;2024-01-16T06:19:32;19.58;;;6.85;;
85259;SDS011;75671;41.678;44.824;2024-01-16T06:21:59;16.75;;;7.18;;
85259;SDS011;75671;41.678;44.824;2024-01-16T06:24:26;28.58;;;7.53;;
85259;SDS011;75671;41.678;44.824;2024-01-16T06:26:54;20.75;;;7.18;;
85259;SDS011;75671;41.678;44.824;2024-01-16T06:29:21;18.02;;;8.13;;
85259;SDS011;75671;41.678;44.824;2024-01-16T06:31:49;19.98;;;7.43;;
85259;SDS011;75671;41.678;44.824;2024-01-16T06:34:16;17.08;;;7.70;;
85259;SDS011;75671;41.678;44.824;2024-01-16T06:36:43;19.00;;;8.07;;
85259;SDS011;75671;41.678;44.824;2024-01-16T06:39:12;20.73;;;8.55;;
85259;SDS011;75671;41.678;44.824;2024-01-16T06:41:41;18.92;;;11.57;;
85259;SDS011;75671;41.678;44.824;2024-01-16T06:44:07;15.38;;;8.38;;
85259;SDS011;75671;41.678;44.824;2024-01-16T06:46:35;16.58;;;7.32;;
85259;SDS011;75671;41.678;44.824;2024-01-16T06:49:02;19.55;;;8.40;;
85259;SDS011;75671;41.678;44.824;2024-01-16T06:51:29;24.55;;;8.02;;
85259;SDS011;75671;41.678;44.824;2024-01-16T06:53:56;25.42;;;10.82;;
85259;SDS011;75671;41.678;44.824;2024-01-16T06:56:24;24.40;;;8.93;;
85259;SDS011;75671;41.678;44.824;2024-01-16T06:58:50;26.23;;;10.00;;
85259;SDS011;75671;41.678;44.824;2024-01-16T07:01:18;29.77;;;11.13;;
85259;SDS011;75671;41.678;44.824;2024-01-16T07:03:45;27.10;;;11.15;;
85259;SDS011;75671;41.678;44.824;2024-01-16T07:06:12;25.40;;;10.48;;
85259;SDS011;75671;41.678;44.824;2024-01-16T07:08:39;23.35;;;9.25;;
85259;SDS011;75671;41.678;44.824;2024-01-16T07:11:07;19.05;;;9.00;;
85259;SDS011;75671;41.678;44.824;2024-01-16T07:13:39;19.35;;;10.45;;
85259;SDS011;75671;41.678;44.824;2024-01-16T07:16:10;18.15;;;9.27;;
85259;SDS011;75671;41.678;44.824;2024-01-16T07:18:38;19.60;;;8.32;;
85259;SDS011;75671;41.678;44.824;2024-01-16T07:21:19;21.65;;;9.43;;
85259;SDS011;75671;41.678;44.824;2024-01-16T07:23:47;32.55;;;11.35;;
85259;SDS011;75671;41.678;44.824;2024-01-16T07:26:14;20.67;;;11.77;;
85259;SDS011;75671;41.678;44.824;2024-01-16T07:28:43;19.58;;;7.53;;
85259;SDS011;75671;41.678;44.824;2024-01-16T07:31:10;26.98;;;10.13;;
85259;SDS011;75671;41.678;44.824;2024-01-16T07:33:38;37.58;;;10.75;;
85259;SDS011;75671;41.678;44.824;2024-01-16T07:36:05;23.10;;;10.35;;
85259;SDS011;75671;41.678;44.824;2024-01-16T07:41:03;31.02;;;9.55;;
85259;SDS011;75671;41.678;44.824;2024-01-16T07:43:30;21.20;;;8.88;;
85259;SDS011;75671;41.678;44.824;2024-01-16T07:45:58;24.20;;;8.70;;
85259;SDS011;75671;41.678;44.824;2024-01-16T07:48:26;18.50;;;9.05;;
85259;SDS011;75671;41.678;44.824;2024-01-16T07:50:53;21.15;;;9.25;;
85259;SDS011;75671;41.678;44.824;2024-01-16T07:53:20;33.58;;;10.00;;
85259;SDS011;75671;41.678;44.824;2024-01-16T07:55:47;31.10;;;10.57;;
85259;SDS011;75671;41.678;44.824;2024-01-16T07:58:14;33.30;;;9.27;;
85259;SDS011;75671;41.678;44.824;2024-01-16T08:00:42;25.95;;;12.07;;
85259;SDS011;75671;41.678;44.824;2024-01-16T08:03:08;23.02;;;9.15;;
85259;SDS011;75671;41.678;44.824;2024-01-16T08:05:41;15.68;;;7.68;;
85259;SDS011;75671;41.678;44.824;2024-01-16T08:08:08;21.90;;;8.73;;
85259;SDS011;75671;41.678;44.824;2024-01-16T08:10:41;21.00;;;10.93;;
85259;SDS011;75671;41.678;44.824;2024-01-16T08:13:08;23.30;;;9.23;;
85259;SDS011;75671;41.678;44.824;2024-01-16T08:15:36;32.88;;;11.20;;
85259;SDS011;75671;41.678;44.824;2024-01-16T08:18:03;22.85;;;11.77;;
85259;SDS011;75671;41.678;44.824;2024-01-16T08:20:31;27.73;;;9.27;;
85259;SDS011;75671;41.678;44.824;2024-01-16T08:22:58;26.00;;;10.65;;
85259;SDS011;75671;41.678;44.824;2024-01-16T08:25:25;24.33;;;8.98;;
85259;SDS011;75671;41.678;44.824;2024-01-16T08:27:52;30.88;;;9.75;;
85259;SDS011;75671;41.678;44.824;2024-01-16T08:30:19;21.98;;;9.35;;
85259;SDS011;75671;41.678;44.824;2024-01-16T08:32:47;29.55;;;14.30;;
85259;SDS011;75671;41.678;44.824;2024-01-16T08:35:14;18.75;;;9.73;;
85259;SDS011;75671;41.678;44.824;2024-01-16T08:37:41;25.63;;;9.70;;
85259;SDS011;75671;41.678;44.824;2024-01-16T08:40:08;31.98;;;9.10;;
85259;SDS011;75671;41.678;44.824;2024-01-16T08:42:38;25.67;;;8.55;;
85259;SDS011;75671;41.678;44.824;2024-01-16T08:45:05;32.17;;;10.73;;
85259;SDS011;75671;41.678;44.824;2024-01-16T08:47:33;22.30;;;8.38;;
85259;SDS011;75671;41.678;44.824;2024-01-16T08:50:00;21.33;;;8.93;;
85259;SDS011;75671;41.678;44.824;2024-01-16T08:52:29;21.60;;;9.98;;
85259;SDS011;75671;41.678;44.824;2024-01-16T08:54:57;22.42;;;10.02;;
85259;SDS011;75671;41.678;44.824;2024-01-16T08:57:24;23.70;;;9.73;;
85259;SDS011;75671;41.678;44.824;2024-01-16T08:59:52;37.10;;;10.15;;
85259;SDS011;75671;41.678;44.824;2024-01-16T09:02:19;26.92;;;10.75;;
85259;SDS011;75671;41.678;44.824;2024-01-16T09:04:47;20.83;;;9.25;;
85259;SDS011;75671;41.678;44.824;2024-01-16T09:07:16;31.55;;;13.05;;
85259;SDS011;75671;41.678;44.824;2024-01-16T09:09:45;39.05;;;12.02;;
85259;SDS011;75671;41.678;44.824;2024-01-16T09:12:12;23.42;;;8.55;;
85259;SDS011;75671;41.678;44.824;2024-01-16T09:14:39;22.23;;;9.73;;
85259;SDS011;75671;41.678;44.824;2024-01-16T09:17:07;21.92;;;9.25;;
85259;SDS011;75671;41.678;44.824;2024-01-16T09:19:35;17.92;;;8.18;;
85259;SDS011;75671;41.678;44.824;2024-01-16T09:22:02;21.48;;;8.90;;
85259;SDS011;75671;41.678;44.824;2024-01-16T09:24:30;21.58;;;11.00;;
85259;SDS011;75671;41.678;44.824;2024-01-16T09:26:57;20.88;;;8.25;;
85259;SDS011;75671;41.678;44.824;2024-01-16T09:29:24;15.93;;;8.48;;
85259;SDS011;75671;41.678;44.824;2024-01-16T09:31:52;25.48;;;10.10;;
85259;SDS011;75671;41.678;44.824;2024-01-16T09:34:19;20.25;;;8.95;;
85259;SDS011;75671;41.678;44.824;2024-01-16T09:36:46;38.78;;;10.80;;
85259;SDS011;75671;41.678;44.824;2024-01-16T09:39:13;28.60;;;11.00;;
85259;SDS011;75671;41.678;44.824;2024-01-16T09:41:44;29.77;;;10.95;;
85259;SDS011;75671;41.678;44.824;2024-01-16T09:44:12;21.27;;;8.35;;
85259;SDS011;75671;41.678;44.824;2024-01-16T09:46:39;27.45;;;10.82;;
85259;SDS011;75671;41.678;44.824;2024-01-16T09:49:07;30.83;;;12.13;;
85259;SDS011;75671;41.678;44.824;2024-01-16T09:51:34;27.50;;;12.25;;
85259;SDS011;75671;41.678;44.824;2024-01-16T09:54:01;28.67;;;9.70;;
85259;SDS011;75671;41.678;44.824;2024-01-16T09:56:32;23.50;;;9.10;;
85259;SDS011;75671;41.678;44.824;2024-01-16T09:59:02;23.63;;;9.02;;
85259;SDS011;75671;41.678;44.824;2024-01-16T10:01:32;26.00;;;10.90;;
85259;SDS011;75671;41.678;44.824;2024-01-16T10:04:00;25.27;;;10.63;;
85259;SDS011;75671;41.678;44.824;2024-01-16T10:06:27;25.95;;;9.32;;
85259;SDS011;75671;41.678;44.824;2024-01-16T10:08:54;16.63;;;7.20;;
85259;SDS011;75671;41.678;44.824;2024-01-16T10:11:21;27.42;;;7.65;;
85259;SDS011;75671;41.678;44.824;2024-01-16T10:13:49;23.10;;;7.80;;
85259;SDS011;75671;41.678;44.824;2024-01-16T10:16:16;18.48;;;8.32;;
85259;SDS011;75671;41.678;44.824;2024-01-16T10:18:43;18.98;;;6.75;;
85259;SDS011;75671;41.678;44.824;2024-01-16T10:21:20;29.23;;;7.80;;
85259;SDS011;75671;41.678;44.824;2024-01-16T10:23:49;27.13;;;8.02;;
85259;SDS011;75671;41.678;44.824;2024-01-16T10:26:16;22.85;;;7.63;;
85259;SDS011;75671;41.678;44.824;2024-01-16T10:28:46;17.48;;;7.85;;
85259;SDS011;75671;41.678;44.824;2024-01-16T10:31:13;25.17;;;7.85;;
85259;SDS011;75671;41.678;44.824;2024-01-16T10:33:41;21.33;;;8.27;;
85259;SDS011;75671;41.678;44.824;2024-01-16T10:36:08;20.40;;;7.93;;
85259;SDS011;75671;41.678;44.824;2024-01-16T10:38:40;19.77;;;9.85;;
85259;SDS011;75671;41.678;44.824;2024-01-16T10:41:08;33.45;;;11.77;;
85259;SDS011;75671;41.678;44.824;2024-01-16T10:43:41;35.65;;;11.15;;
85259;SDS011;75671;41.678;44.824;2024-01-16T10:46:15;42.33;;;12.48;;
85259;SDS011;75671;41.678;44.824;2024-01-16T10:48:58;33.10;;;11.27;;
85259;SDS011;75671;41.678;44.824;2024-01-16T10:51:26;30.50;;;10.30;;
85259;SDS011;75671;41.678;44.824;2024-01-16T10:53:58;27.48;;;8.50;;
85259;SDS011;75671;41.678;44.824;2024-01-16T10:56:34;29.75;;;9.75;;
85259;SDS011;75671;41.678;44.824;2024-01-16T11:01:39;39.58;;;13.18;;
85259;SDS011;75671;41.678;44.824;2024-01-16T11:04:10;29.92;;;12.18;;
85259;SDS011;75671;41.678;44.824;2024-01-16T11:06:38;37.88;;;10.73;;
85259;SDS011;75671;41.678;44.824;2024-01-16T11:09:07;30.35;;;10.35;;
85259;SDS011;75671;41.678;44.824;2024-01-16T11:11:34;23.25;;;8.43;;
85259;SDS011;75671;41.678;44.824;2024-01-16T11:14:04;28.60;;;10.32;;
85259;SDS011;75671;41.678;44.824;2024-01-16T11:16:32;23.35;;;10.15;;
85259;SDS011;75671;41.678;44.824;2024-01-16T11:18:59;114.47;;;30.67;;
85259;SDS011;75671;41.678;44.824;2024-01-16T11:21:27;31.70;;;10.98;;
85259;SDS011;75671;41.678;44.824;2024-01-16T11:23:54;29.58;;;10.60;;
85259;SDS011;75671;41.678;44.824;2024-01-16T11:26:28;22.23;;;9.13;;
85259;SDS011;75671;41.678;44.824;2024-01-16T11:29:00;34.20;;;10.80;;
85259;SDS011;75671;41.678;44.824;2024-01-16T11:31:33;30.40;;;9.85;;
85259;SDS011;75671;41.678;44.824;2024-01-16T11:34:02;36.97;;;13.73;;
85259;SDS011;75671;41.678;44.824;2024-01-16T11:36:50;38.70;;;12.05;;
85259;SDS011;75671;41.678;44.824;2024-01-16T11:39:22;28.63;;;10.57;;
85259;SDS011;75671;41.678;44.824;2024-01-16T11:41:59;28.42;;;9.40;;
85259;SDS011;75671;41.678;44.824;2024-01-16T11:44:42;38.13;;;11.05;;
85259;SDS011;75671;41.678;44.824;2024-01-16T11:47:23;28.80;;;10.02;;
85259;SDS011;75671;41.678;44.824;2024-01-16T11:49:51;37.70;;;13.13;;
85259;SDS011;75671;41.678;44.824;2024-01-16T11:52:44;37.80;;;11.88;;
85259;SDS011;75671;41.678;44.824;2024-01-16T11:55:30;28.85;;;10.38;;
85259;SDS011;75671;41.678;44.824;2024-01-16T12:00:57;25.15;;;10.57;;
85259;SDS011;75671;41.678;44.824;2024-01-16T12:03:24;33.30;;;10.82;;
85259;SDS011;75671;41.678;44.824;2024-01-16T12:05:58;31.35;;;11.95;;
85259;SDS011;75671;41.678;44.824;2024-01-16T12:08:25;45.63;;;13.07;;
85259;SDS011;75671;41.678;44.824;2024-01-16T12:10:53;27.90;;;11.77;;
85259;SDS011;75671;41.678;44.824;2024-01-16T12:13:20;31.58;;;14.05;;
85259;SDS011;75671;41.678;44.824;2024-01-16T12:15:47;34.33;;;11.70;;
85259;SDS011;75671;41.678;44.824;2024-01-16T12:18:18;33.50;;;11.05;;
85259;SDS011;75671;41.678;44.824;2024-01-16T12:20:46;47.60;;;12.10;;
85259;SDS011;75671;41.678;44.824;2024-01-16T12:23:13;32.97;;;11.82;;
85259;SDS011;75671;41.678;44.824;2024-01-16T12:25:40;36.25;;;12.73;;
85259;SDS011;75671;41.678;44.824;2024-01-16T12:28:07;32.40;;;11.85;;
85259;SDS011;75671;41.678;44.824;2024-01-16T12:30:37;31.58;;;9.23;;
85259;SDS011;75671;41.678;44.824;2024-01-16T12:35:36;30.90;;;9.90;;
85259;SDS011;75671;41.678;44.824;2024-01-16T12:38:07;35.60;;;11.07;;
85259;SDS011;75671;41.678;44.824;2024-01-16T12:40:39;34.83;;;9.98;;
85259;SDS011;75671;41.678;44.824;2024-01-16T12:43:08;36.45;;;10.52;;
85259;SDS011;75671;41.678;44.824;2024-01-16T12:45:38;36.60;;;11.40;;
85259;SDS011;75671;41.678;44.824;2024-01-16T12:48:05;49.80;;;11.20;;
85259;SDS011;75671;41.678;44.824;2024-01-16T12:50:34;58.78;;;17.13;;
85259;SDS011;75671;41.678;44.824;2024-01-16T12:53:06;46.40;;;13.65;;
85259;SDS011;75671;41.678;44.824;2024-01-16T12:55:36;51.28;;;13.90;;
85259;SDS011;75671;41.678;44.824;2024-01-16T12:58:17;41.30;;;11.55;;
85259;SDS011;75671;41.678;44.824;2024-01-16T13:00:50;33.00;;;11.73;;
85259;SDS011;75671;41.678;44.824;2024-01-16T13:03:18;51.40;;;13.07;;
85259;SDS011;75671;41.678;44.824;2024-01-16T13:05:54;46.67;;;14.13;;
85259;SDS011;75671;41.678;44.824;2024-01-16T13:08:23;37.55;;;12.73;;
85259;SDS011;75671;41.678;44.824;2024-01-16T13:13:49;32.25;;;12.45;;
85259;SDS011;75671;41.678;44.824;2024-01-16T13:16:30;36.47;;;11.07;;
85259;SDS011;75671;41.678;44.824;2024-01-16T13:19:00;32.65;;;10.85;;
85259;SDS011;75671;41.678;44.824;2024-01-16T13:21:29;28.80;;;12.50;;
85259;SDS011;75671;41.678;44.824;2024-01-16T13:23:56;44.33;;;16.13;;
85259;SDS011;75671;41.678;44.824;2024-01-16T13:26:23;33.53;;;12.57;;
85259;SDS011;75671;41.678;44.824;2024-01-16T13:28:50;27.48;;;9.65;;
85259;SDS011;75671;41.678;44.824;2024-01-16T13:31:17;23.30;;;9.45;;
85259;SDS011;75671;41.678;44.824;2024-01-16T13:33:44;27.08;;;9.23;;
85259;SDS011;75671;41.678;44.824;2024-01-16T13:36:11;25.83;;;10.40;;
85259;SDS011;75671;41.678;44.824;2024-01-16T13:38:39;23.77;;;9.60;;
85259;SDS011;75671;41.678;44.824;2024-01-16T13:41:06;27.85;;;10.80;;
85259;SDS011;75671;41.678;44.824;2024-01-16T13:43:33;32.65;;;12.43;;
85259;SDS011;75671;41.678;44.824;2024-01-16T13:46:01;32.97;;;12.52;;
85259;SDS011;75671;41.678;44.824;2024-01-16T13:48:29;39.47;;;14.80;;
85259;SDS011;75671;41.678;44.824;2024-01-16T13:50:57;35.03;;;12.90;;
85259;SDS011;75671;41.678;44.824;2024-01-16T13:53:24;29.85;;;11.30;;
85259;SDS011;75671;41.678;44.824;2024-01-16T13:55:52;45.95;;;14.82;;
85259;SDS011;75671;41.678;44.824;2024-01-16T13:58:19;32.90;;;11.15;;
85259;SDS011;75671;41.678;44.824;2024-01-16T14:00:47;29.10;;;10.10;;
85259;SDS011;75671;41.678;44.824;2024-01-16T14:03:13;25.77;;;9.18;;
85259;SDS011;75671;41.678;44.824;2024-01-16T14:05:41;24.58;;;9.10;;
85259;SDS011;75671;41.678;44.824;2024-01-16T14:08:09;29.02;;;9.85;;
85259;SDS011;75671;41.678;44.824;2024-01-16T14:10:39;39.85;;;11.60;;
85259;SDS011;75671;41.678;44.824;2024-01-16T14:13:06;30.08;;;10.07;;
85259;SDS011;75671;41.678;44.824;2024-01-16T14:15:33;39.63;;;12.02;;
85259;SDS011;75671;41.678;44.824;2024-01-16T14:18:00;76.50;;;30.90;;
85259;SDS011;75671;41.678;44.824;2024-01-16T14:20:30;43.05;;;13.93;;
85259;SDS011;75671;41.678;44.824;2024-01-16T14:22:56;38.95;;;12.27;;
85259;SDS011;75671;41.678;44.824;2024-01-16T14:25:25;32.80;;;11.13;;
85259;SDS011;75671;41.678;44.824;2024-01-16T14:27:56;29.98;;;8.77;;
85259;SDS011;75671;41.678;44.824;2024-01-16T14:30:24;23.88;;;8.85;;
85259;SDS011;75671;41.678;44.824;2024-01-16T14:32:52;37.20;;;12.23;;
85259;SDS011;75671;41.678;44.824;2024-01-16T14:35:20;24.48;;;9.32;;
85259;SDS011;75671;41.678;44.824;2024-01-16T14:37:47;20.25;;;8.38;;